createdAt,value
2023-02-26T00:00:45.592Z,995.33
2023-02-26T00:01:45.632Z,995.32
2023-02-26T00:02:45.567Z,995.28
2023-02-26T00:03:45.561Z,995.34
2023-02-26T00:04:45.601Z,995.36
2023-02-26T00:05:45.549Z,995.35
2023-02-26T00:06:45.534Z,995.37
2023-02-26T00:07:45.541Z,995.32
2023-02-26T00:08:45.519Z,995.35
2023-02-26T00:09:45.510Z,995.33
2023-02-26T00:10:45.482Z,995.38
2023-02-26T00:11:45.477Z,995.38
2023-02-26T00:12:45.464Z,995.32
2023-02-26T00:13:45.444Z,995.36
2023-02-26T00:14:45.451Z,995.39
2023-02-26T00:15:45.419Z,995.33
2023-02-26T00:16:45.462Z,995.33
2023-02-26T00:17:45.454Z,995.37
2023-02-26T00:18:45.389Z,995.38
2023-02-26T00:19:45.378Z,995.43
2023-02-26T00:20:45.422Z,995.44
2023-02-26T00:21:45.355Z,995.43
2023-02-26T00:22:45.344Z,995.46
2023-02-26T00:23:45.334Z,995.49
2023-02-26T00:24:45.322Z,995.51
2023-02-26T00:25:45.330Z,995.53
2023-02-26T00:26:45.323Z,995.51
2023-02-26T00:27:45.336Z,995.51
2023-02-26T00:28:45.283Z,995.57
2023-02-26T00:29:45.295Z,995.60
2023-02-26T00:30:45.273Z,995.61
2023-02-26T00:31:45.389Z,995.62
2023-02-26T00:32:45.285Z,995.64
2023-02-26T00:33:45.236Z,995.65
2023-02-26T00:34:45.346Z,995.65
2023-02-26T00:35:45.211Z,995.68
2023-02-26T00:36:45.221Z,995.68
2023-02-26T00:37:45.203Z,995.74
2023-02-26T00:38:45.167Z,995.77
2023-02-26T00:39:45.186Z,995.77
2023-02-26T00:40:45.153Z,995.79
2023-02-26T00:41:45.173Z,995.76
2023-02-26T00:42:45.139Z,995.77
2023-02-26T00:43:45.132Z,995.77
2023-02-26T00:44:45.109Z,995.81
2023-02-26T00:45:45.138Z,995.81
2023-02-26T00:46:45.089Z,995.82
2023-02-26T00:47:52.140Z,995.86
2023-02-26T00:48:45.078Z,995.78
2023-02-26T00:49:45.073Z,995.80
2023-02-26T00:50:45.027Z,995.73
2023-02-26T00:51:45.018Z,995.80
2023-02-26T00:52:45.021Z,995.78
2023-02-26T00:53:45.004Z,995.78
2023-02-26T00:54:45.017Z,995.80
2023-02-26T00:55:44.990Z,995.82
2023-02-26T00:56:44.964Z,995.82
2023-02-26T00:57:44.968Z,995.85
2023-02-26T00:58:44.953Z,995.85
2023-02-26T00:59:44.951Z,995.86
2023-02-26T01:00:45.037Z,995.87
2023-02-26T01:01:45.010Z,995.86
2023-02-26T01:02:44.899Z,995.91
2023-02-26T01:03:45.022Z,995.90
2023-02-26T01:04:44.873Z,995.91
2023-02-26T01:05:44.879Z,995.89
2023-02-26T01:06:44.853Z,995.91
2023-02-26T01:07:44.881Z,995.88
2023-02-26T01:08:44.859Z,995.88
2023-02-26T01:09:44.830Z,995.88
2023-02-26T01:10:44.829Z,995.86
2023-02-26T01:11:44.844Z,995.87
2023-02-26T01:12:44.788Z,995.90
2023-02-26T01:13:44.776Z,995.92
2023-02-26T01:14:44.763Z,995.89
2023-02-26T01:15:44.813Z,995.88
2023-02-26T01:16:44.743Z,995.92
2023-02-26T01:17:44.744Z,995.86
2023-02-26T01:18:44.765Z,995.92
2023-02-26T01:19:44.733Z,995.89
2023-02-26T01:20:44.698Z,995.92
2023-02-26T01:21:44.687Z,995.85
2023-02-26T01:22:44.677Z,995.86
2023-02-26T01:23:44.696Z,995.86
2023-02-26T01:24:44.669Z,995.81
2023-02-26T01:25:44.645Z,995.85
2023-02-26T01:26:44.652Z,995.84
2023-02-26T01:27:44.626Z,995.91
2023-02-26T01:28:44.614Z,995.92
2023-02-26T01:29:44.599Z,995.92
2023-02-26T01:30:44.666Z,995.89
2023-02-26T01:31:44.859Z,995.90
2023-02-26T01:32:44.657Z,996.01
2023-02-26T01:33:44.576Z,996.05
2023-02-26T01:34:44.554Z,996.02
2023-02-26T01:35:44.580Z,996.01
2023-02-26T01:36:44.520Z,996.02
2023-02-26T01:37:44.514Z,996.03
2023-02-26T01:38:44.497Z,996.06
2023-02-26T01:39:44.486Z,996.06
2023-02-26T01:40:44.523Z,996.06
2023-02-26T01:41:44.506Z,996.09
2023-02-26T01:42:44.458Z,996.11
2023-02-26T01:43:44.466Z,996.08
2023-02-26T01:44:44.442Z,996.10
2023-02-26T01:45:44.475Z,996.11
2023-02-26T01:46:44.460Z,996.12
2023-02-26T01:47:44.403Z,996.13
2023-02-26T01:48:44.385Z,996.10
2023-02-26T01:49:44.419Z,996.07
2023-02-26T01:50:44.389Z,996.10
2023-02-26T01:51:44.365Z,996.10
2023-02-26T01:52:44.347Z,996.14
2023-02-26T01:53:44.341Z,996.12
2023-02-26T01:54:44.358Z,996.13
2023-02-26T01:55:44.337Z,996.13
2023-02-26T01:56:44.330Z,996.13
2023-02-26T01:57:44.317Z,996.17
2023-02-26T01:58:44.280Z,996.12
2023-02-26T01:59:44.298Z,996.12
2023-02-26T02:00:44.261Z,996.14
2023-02-26T02:01:44.280Z,996.19
2023-02-26T02:02:44.329Z,996.14
2023-02-26T02:03:44.265Z,996.15
2023-02-26T02:04:44.231Z,996.16
2023-02-26T02:05:44.215Z,996.21
2023-02-26T02:06:44.288Z,996.17
2023-02-26T02:07:44.194Z,996.18
2023-02-26T02:08:44.198Z,996.23
2023-02-26T02:09:44.163Z,996.20
2023-02-26T02:10:44.177Z,996.27
2023-02-26T02:11:44.139Z,996.27
2023-02-26T02:12:44.159Z,996.27
2023-02-26T02:13:44.144Z,996.31
2023-02-26T02:14:44.110Z,996.30
2023-02-26T02:15:44.095Z,996.27
2023-02-26T02:16:44.161Z,996.29
2023-02-26T02:17:44.094Z,996.32
2023-02-26T02:18:44.056Z,996.31
2023-02-26T02:19:44.064Z,996.34
2023-02-26T02:20:44.070Z,996.31
2023-02-26T02:21:44.023Z,996.35
2023-02-26T02:22:44.040Z,996.35
2023-02-26T02:23:44.001Z,996.35
2023-02-26T02:24:43.994Z,996.37
2023-02-26T02:25:43.984Z,996.35
2023-02-26T02:26:43.968Z,996.40
2023-02-26T02:27:43.957Z,996.38
2023-02-26T02:28:43.998Z,996.41
2023-02-26T02:29:43.954Z,996.37
2023-02-26T02:30:43.923Z,996.40
2023-02-26T02:31:44.188Z,996.41
2023-02-26T02:32:43.941Z,996.34
2023-02-26T02:33:43.923Z,996.42
2023-02-26T02:34:43.911Z,996.36
2023-02-26T02:35:43.869Z,996.38
2023-02-26T02:36:43.936Z,996.36
2023-02-26T02:37:43.860Z,996.38
2023-02-26T02:38:43.838Z,996.40
2023-02-26T02:39:43.821Z,996.42
2023-02-26T02:40:43.814Z,996.38
2023-02-26T02:41:43.822Z,996.45
2023-02-26T02:42:43.817Z,996.46
2023-02-26T02:43:43.904Z,996.47
2023-02-26T02:44:43.792Z,996.49
2023-02-26T02:45:43.886Z,996.50
2023-02-26T02:46:43.805Z,996.54
2023-02-26T02:47:43.736Z,996.57
2023-02-26T02:48:43.746Z,996.54
2023-02-26T02:49:43.715Z,996.52
2023-02-26T02:50:43.714Z,996.59
2023-02-26T02:51:43.693Z,996.59
2023-02-26T02:52:43.702Z,996.57
2023-02-26T02:53:43.679Z,996.58
2023-02-26T02:54:43.671Z,996.62
2023-02-26T02:55:43.647Z,996.59
2023-02-26T02:56:43.653Z,996.60
2023-02-26T02:57:43.629Z,996.66
2023-02-26T02:58:43.636Z,996.70
2023-02-26T02:59:43.627Z,996.67
2023-02-26T03:00:43.658Z,996.75
2023-02-26T03:01:43.585Z,996.70
2023-02-26T03:02:43.609Z,996.74
2023-02-26T03:03:43.583Z,996.70
2023-02-26T03:04:43.549Z,996.75
2023-02-26T03:05:43.551Z,996.77
2023-02-26T03:06:43.526Z,996.74
2023-02-26T03:07:43.516Z,996.74
2023-02-26T03:08:43.525Z,996.73
2023-02-26T03:09:43.519Z,996.77
2023-02-26T03:10:43.495Z,996.85
2023-02-26T03:11:43.480Z,996.79
2023-02-26T03:12:43.473Z,996.87
2023-02-26T03:13:43.477Z,996.85
2023-02-26T03:14:43.447Z,996.88
2023-02-26T03:15:43.424Z,996.85
2023-02-26T03:16:43.557Z,996.90
2023-02-26T03:17:43.429Z,996.93
2023-02-26T03:18:43.398Z,996.95
2023-02-26T03:19:43.384Z,996.97
2023-02-26T03:20:43.375Z,997.02
2023-02-26T03:21:43.392Z,997.03
2023-02-26T03:22:43.370Z,997.07
2023-02-26T03:23:43.357Z,997.08
2023-02-26T03:24:43.331Z,997.10
2023-02-26T03:25:43.327Z,997.12
2023-02-26T03:26:43.326Z,997.14
2023-02-26T03:27:43.304Z,997.12
2023-02-26T03:28:43.306Z,997.19
2023-02-26T03:29:43.296Z,997.21
2023-02-26T03:30:43.347Z,997.21
2023-02-26T03:31:43.344Z,997.21
2023-02-26T03:32:43.399Z,997.25
2023-02-26T03:33:43.264Z,997.32
2023-02-26T03:34:43.254Z,997.32
2023-02-26T03:35:43.214Z,997.36
2023-02-26T03:36:43.211Z,997.31
2023-02-26T03:37:43.200Z,997.35
2023-02-26T03:38:43.210Z,997.34
2023-02-26T03:39:43.193Z,997.33
2023-02-26T03:40:43.157Z,997.39
2023-02-26T03:41:43.151Z,997.38
2023-02-26T03:42:43.154Z,997.38
2023-02-26T03:43:43.127Z,997.39
2023-02-26T03:44:43.130Z,997.41
2023-02-26T03:45:43.239Z,997.47
2023-02-26T03:46:43.109Z,997.53
2023-02-26T03:47:43.107Z,997.51
2023-02-26T03:48:43.188Z,997.54
2023-02-26T03:49:43.070Z,997.55
2023-02-26T03:50:43.090Z,997.53
2023-02-26T03:51:43.084Z,997.56
2023-02-26T03:52:43.025Z,997.56
2023-02-26T03:53:43.015Z,997.52
2023-02-26T03:54:43.005Z,997.57
2023-02-26T03:55:42.994Z,997.56
2023-02-26T03:56:43.013Z,997.60
2023-02-26T03:57:42.977Z,997.62
2023-02-26T03:58:42.961Z,997.63
2023-02-26T03:59:42.959Z,997.60
2023-02-26T04:00:43.296Z,997.62
2023-02-26T04:01:42.945Z,997.70
2023-02-26T04:02:42.924Z,997.69
2023-02-26T04:03:42.903Z,997.77
2023-02-26T04:04:42.979Z,997.80
2023-02-26T04:05:42.886Z,997.80
2023-02-26T04:06:42.893Z,997.78
2023-02-26T04:07:42.859Z,997.80
2023-02-26T04:08:42.862Z,997.78
2023-02-26T04:09:42.847Z,997.78
2023-02-26T04:10:42.852Z,997.74
2023-02-26T04:11:42.814Z,997.80
2023-02-26T04:12:42.799Z,997.73
2023-02-26T04:13:42.802Z,997.70
2023-02-26T04:14:42.809Z,997.68
2023-02-26T04:15:42.774Z,997.67
2023-02-26T04:16:42.789Z,997.71
2023-02-26T04:17:42.751Z,997.69
2023-02-26T04:18:42.754Z,997.68
2023-02-26T04:19:42.737Z,997.71
2023-02-26T04:20:42.758Z,997.80
2023-02-26T04:21:42.719Z,997.71
2023-02-26T04:22:42.692Z,997.69
2023-02-26T04:23:42.701Z,997.62
2023-02-26T04:24:42.678Z,997.68
2023-02-26T04:25:42.694Z,997.77
2023-02-26T04:26:42.652Z,997.72
2023-02-26T04:27:42.639Z,997.77
2023-02-26T04:28:42.629Z,997.82
2023-02-26T04:29:42.642Z,997.83
2023-02-26T04:30:42.669Z,997.85
2023-02-26T04:31:42.849Z,997.85
2023-02-26T04:32:42.579Z,997.87
2023-02-26T04:33:42.568Z,997.90
2023-02-26T04:34:42.566Z,997.90
2023-02-26T04:35:42.544Z,997.95
2023-02-26T04:36:42.604Z,997.98
2023-02-26T04:37:42.545Z,998.02
2023-02-26T04:38:42.511Z,998.05
2023-02-26T04:39:42.498Z,998.07
2023-02-26T04:40:42.489Z,998.12
2023-02-26T04:41:42.501Z,998.12
2023-02-26T04:42:42.468Z,998.12
2023-02-26T04:43:42.460Z,998.11
2023-02-26T04:44:42.442Z,998.08
2023-02-26T04:45:42.431Z,998.16
2023-02-26T04:46:42.514Z,998.16
2023-02-26T04:47:42.419Z,998.21
2023-02-26T04:48:42.408Z,998.22
2023-02-26T04:49:42.386Z,998.23
2023-02-26T04:50:42.377Z,998.24
2023-02-26T04:51:42.388Z,998.22
2023-02-26T04:52:42.372Z,998.23
2023-02-26T04:53:42.350Z,998.24
2023-02-26T04:54:42.347Z,998.21
2023-02-26T04:55:42.321Z,998.25
2023-02-26T04:56:42.364Z,998.31
2023-02-26T04:57:42.325Z,998.26
2023-02-26T04:58:42.288Z,998.27
2023-02-26T04:59:42.276Z,998.28
2023-02-26T05:00:42.274Z,998.32
2023-02-26T05:01:42.311Z,998.33
2023-02-26T05:02:42.253Z,998.33
2023-02-26T05:03:42.238Z,998.34
2023-02-26T05:04:42.267Z,998.36
2023-02-26T05:05:42.221Z,998.39
2023-02-26T05:06:42.228Z,998.39
2023-02-26T05:07:42.194Z,998.41
2023-02-26T05:08:42.314Z,998.37
2023-02-26T05:09:42.180Z,998.37
2023-02-26T05:10:42.160Z,998.42
2023-02-26T05:11:42.170Z,998.45
2023-02-26T05:12:42.149Z,998.44
2023-02-26T05:13:42.141Z,998.51
2023-02-26T05:14:42.190Z,998.43
2023-02-26T05:15:42.146Z,998.55
2023-02-26T05:16:42.113Z,998.54
2023-02-26T05:17:42.102Z,998.53
2023-02-26T05:18:42.081Z,998.50
2023-02-26T05:19:42.134Z,998.51
2023-02-26T05:20:42.115Z,998.58
2023-02-26T05:21:42.063Z,998.60
2023-02-26T05:22:42.052Z,998.59
2023-02-26T05:23:42.095Z,998.57
2023-02-26T05:24:42.022Z,998.56
2023-02-26T05:25:41.995Z,998.59
2023-02-26T05:26:42.016Z,998.58
2023-02-26T05:27:41.980Z,998.63
2023-02-26T05:28:41.987Z,998.58
2023-02-26T05:29:41.962Z,998.59
2023-02-26T05:30:41.998Z,998.63
2023-02-26T05:31:42.083Z,998.67
2023-02-26T05:32:41.915Z,998.67
2023-02-26T05:33:41.963Z,998.67
2023-02-26T05:34:41.959Z,998.71
2023-02-26T05:35:41.886Z,998.67
2023-02-26T05:36:41.873Z,998.77
2023-02-26T05:37:41.870Z,998.76
2023-02-26T05:38:41.874Z,998.73
2023-02-26T05:39:41.858Z,998.76
2023-02-26T05:40:41.946Z,998.77
2023-02-26T05:41:41.823Z,998.73
2023-02-26T05:42:41.833Z,998.80
2023-02-26T05:43:41.834Z,998.79
2023-02-26T05:44:41.788Z,998.82
2023-02-26T05:45:41.794Z,998.81
2023-02-26T05:46:41.786Z,998.84
2023-02-26T05:47:41.760Z,998.88
2023-02-26T05:48:43.095Z,998.86
2023-02-26T05:49:41.747Z,998.90
2023-02-26T05:50:41.749Z,998.85
2023-02-26T05:51:41.725Z,998.90
2023-02-26T05:52:41.705Z,998.90
2023-02-26T05:53:41.693Z,998.93
2023-02-26T05:54:41.701Z,998.94
2023-02-26T05:55:41.664Z,998.99
2023-02-26T05:56:41.688Z,998.96
2023-02-26T05:57:41.649Z,998.99
2023-02-26T05:58:41.631Z,998.97
2023-02-26T05:59:41.637Z,999.01
2023-02-26T06:00:41.603Z,999.02
2023-02-26T06:01:41.637Z,999.01
2023-02-26T06:02:41.699Z,999.05
2023-02-26T06:03:41.570Z,999.03
2023-02-26T06:04:41.556Z,999.03
2023-02-26T06:05:41.560Z,999.07
2023-02-26T06:06:41.555Z,999.06
2023-02-26T06:07:41.526Z,999.10
2023-02-26T06:08:41.533Z,999.12
2023-02-26T06:09:41.504Z,999.18
2023-02-26T06:10:41.493Z,999.23
2023-02-26T06:11:41.526Z,999.22
2023-02-26T06:12:41.487Z,999.22
2023-02-26T06:13:41.470Z,999.29
2023-02-26T06:14:41.471Z,999.29
2023-02-26T06:15:41.470Z,999.30
2023-02-26T06:16:41.523Z,999.33
2023-02-26T06:17:41.458Z,999.29
2023-02-26T06:18:41.447Z,999.35
2023-02-26T06:19:41.394Z,999.39
2023-02-26T06:20:41.379Z,999.38
2023-02-26T06:21:41.384Z,999.48
2023-02-26T06:22:41.389Z,999.49
2023-02-26T06:23:41.354Z,999.49
2023-02-26T06:24:41.354Z,999.50
2023-02-26T06:25:41.334Z,999.52
2023-02-26T06:26:41.320Z,999.55
2023-02-26T06:27:41.330Z,999.53
2023-02-26T06:28:41.323Z,999.59
2023-02-26T06:29:41.286Z,999.57
2023-02-26T06:30:41.448Z,999.65
2023-02-26T06:31:41.426Z,999.60
2023-02-26T06:32:41.296Z,999.65
2023-02-26T06:33:41.245Z,999.66
2023-02-26T06:34:41.232Z,999.66
2023-02-26T06:35:41.251Z,999.78
2023-02-26T06:36:41.221Z,999.79
2023-02-26T06:37:41.213Z,999.82
2023-02-26T06:38:41.189Z,999.83
2023-02-26T06:39:41.207Z,999.85
2023-02-26T06:40:41.183Z,999.87
2023-02-26T06:41:41.174Z,999.87
2023-02-26T06:42:41.162Z,999.88
2023-02-26T06:43:41.135Z,999.89
2023-02-26T06:44:41.159Z,999.93
2023-02-26T06:45:41.172Z,999.97
2023-02-26T06:46:41.113Z,999.97
2023-02-26T06:47:49.396Z,1000.01
2023-02-26T06:48:41.100Z,999.98
2023-02-26T06:49:41.121Z,1000.04
2023-02-26T06:50:41.075Z,1000.07
2023-02-26T06:51:41.073Z,1000.07
2023-02-26T06:52:41.065Z,1000.09
2023-02-26T06:53:41.038Z,1000.13
2023-02-26T06:54:41.041Z,1000.10
2023-02-26T06:55:41.062Z,1000.11
2023-02-26T06:56:41.020Z,1000.16
2023-02-26T06:57:41.009Z,1000.18
2023-02-26T06:58:41.023Z,1000.16
2023-02-26T06:59:41.188Z,1000.19
2023-02-26T07:00:40.981Z,1000.22
2023-02-26T07:01:40.989Z,1000.22
2023-02-26T07:02:41.008Z,1000.23
2023-02-26T07:03:40.982Z,1000.24
2023-02-26T07:04:40.956Z,1000.24
2023-02-26T07:05:40.922Z,1000.28
2023-02-26T07:06:41.261Z,1000.21
2023-02-26T07:07:40.887Z,1000.27
2023-02-26T07:08:40.911Z,1000.31
2023-02-26T07:09:41.011Z,1000.30
2023-02-26T07:10:40.869Z,1000.32
2023-02-26T07:11:40.848Z,1000.32
2023-02-26T07:12:40.826Z,1000.42
2023-02-26T07:13:40.857Z,1000.43
2023-02-26T07:14:40.833Z,1000.38
2023-02-26T07:15:40.800Z,1000.43
2023-02-26T07:16:40.896Z,1000.37
2023-02-26T07:17:40.812Z,1000.40
2023-02-26T07:18:40.809Z,1000.43
2023-02-26T07:19:40.772Z,1000.40
2023-02-26T07:20:40.754Z,1000.41
2023-02-26T07:21:40.760Z,1000.47
2023-02-26T07:22:40.726Z,1000.44
2023-02-26T07:23:40.712Z,1000.45
2023-02-26T07:24:40.729Z,1000.51
2023-02-26T07:25:40.692Z,1000.51
2023-02-26T07:26:40.705Z,1000.51
2023-02-26T07:27:43.389Z,1000.50
2023-02-26T07:28:40.662Z,1000.47
2023-02-26T07:29:40.655Z,1000.47
2023-02-26T07:30:40.857Z,1000.51
2023-02-26T07:31:40.794Z,1000.56
2023-02-26T07:32:40.643Z,1000.55
2023-02-26T07:33:40.612Z,1000.56
2023-02-26T07:34:40.609Z,1000.59
2023-02-26T07:35:40.596Z,1000.57
2023-02-26T07:36:40.613Z,1000.59
2023-02-26T07:37:40.605Z,1000.62
2023-02-26T07:38:40.543Z,1000.63
2023-02-26T07:39:40.531Z,1000.61
2023-02-26T07:40:40.536Z,1000.62
2023-02-26T07:41:40.517Z,1000.63
2023-02-26T07:42:40.576Z,1000.66
2023-02-26T07:43:40.507Z,1000.65
2023-02-26T07:44:40.491Z,1000.67
2023-02-26T07:45:40.466Z,1000.73
2023-02-26T07:46:40.472Z,1000.72
2023-02-26T07:47:40.499Z,1000.69
2023-02-26T07:48:40.463Z,1000.69
2023-02-26T07:49:40.440Z,1000.74
2023-02-26T07:50:40.564Z,1000.76
2023-02-26T07:51:40.424Z,1000.80
2023-02-26T07:52:40.430Z,1000.79
2023-02-26T07:53:40.502Z,1000.79
2023-02-26T07:54:40.365Z,1000.80
2023-02-26T07:55:40.360Z,1000.80
2023-02-26T07:56:40.361Z,1000.86
2023-02-26T07:57:40.336Z,1000.85
2023-02-26T07:58:40.355Z,1000.85
2023-02-26T07:59:40.313Z,1000.88
2023-02-26T08:00:40.303Z,1000.90
2023-02-26T08:01:40.400Z,1000.88
2023-02-26T08:02:40.274Z,1000.89
2023-02-26T08:03:40.293Z,1000.90
2023-02-26T08:04:40.272Z,1000.89
2023-02-26T08:05:40.250Z,1000.96
2023-02-26T08:06:40.224Z,1000.94
2023-02-26T08:07:40.316Z,1000.99
2023-02-26T08:08:40.248Z,1001.04
2023-02-26T08:09:40.189Z,1001.01
2023-02-26T08:10:42.040Z,1001.01
2023-02-26T08:11:40.165Z,1001.01
2023-02-26T08:12:40.167Z,1001.05
2023-02-26T08:13:40.193Z,1001.07
2023-02-26T08:14:40.150Z,1001.06
2023-02-26T08:15:40.162Z,1001.06
2023-02-26T08:16:40.130Z,1001.03
2023-02-26T08:17:40.152Z,1001.04
2023-02-26T08:18:40.105Z,1001.08
2023-02-26T08:19:40.092Z,1001.08
2023-02-26T08:20:40.138Z,1001.05
2023-02-26T08:21:40.115Z,1001.11
2023-02-26T08:22:40.129Z,1001.09
2023-02-26T08:23:40.046Z,1001.10
2023-02-26T08:24:40.033Z,1001.06
2023-02-26T08:25:40.054Z,1001.09
2023-02-26T08:26:40.047Z,1001.13
2023-02-26T08:27:40.003Z,1001.13
2023-02-26T08:28:40.049Z,1001.17
2023-02-26T08:29:39.974Z,1001.16
2023-02-26T08:30:40.059Z,1001.20
2023-02-26T08:31:40.084Z,1001.16
2023-02-26T08:32:40.177Z,1001.22
2023-02-26T08:33:39.961Z,1001.26
2023-02-26T08:34:39.954Z,1001.27
2023-02-26T08:35:39.917Z,1001.27
2023-02-26T08:36:39.932Z,1001.30
2023-02-26T08:37:39.895Z,1001.27
2023-02-26T08:38:40.049Z,1001.27
2023-02-26T08:39:39.863Z,1001.31
2023-02-26T08:40:39.860Z,1001.27
2023-02-26T08:41:39.881Z,1001.31
2023-02-26T08:42:39.851Z,1001.32
2023-02-26T08:43:39.870Z,1001.35
2023-02-26T08:44:39.903Z,1001.33
2023-02-26T08:45:39.864Z,1001.37
2023-02-26T08:46:39.985Z,1001.38
2023-02-26T08:47:53.888Z,1001.39
2023-02-26T08:48:40.758Z,1001.49
2023-02-26T08:49:39.772Z,1001.42
2023-02-26T08:50:39.742Z,1001.46
2023-02-26T08:51:39.738Z,1001.47
2023-02-26T08:52:39.763Z,1001.51
2023-02-26T08:53:39.724Z,1001.48
2023-02-26T08:54:39.702Z,1001.57
2023-02-26T08:55:39.685Z,1001.51
2023-02-26T08:56:39.684Z,1001.54
2023-02-26T08:57:39.707Z,1001.59
2023-02-26T08:58:39.704Z,1001.62
2023-02-26T08:59:39.684Z,1001.60
2023-02-26T09:00:39.669Z,1001.64
2023-02-26T09:01:39.714Z,1001.63
2023-02-26T09:02:39.737Z,1001.64
2023-02-26T09:03:39.910Z,1001.73
2023-02-26T09:04:39.592Z,1001.73
2023-02-26T09:05:39.590Z,1001.72
2023-02-26T09:06:39.559Z,1001.70
2023-02-26T09:07:39.593Z,1001.78
2023-02-26T09:08:39.612Z,1001.84
2023-02-26T09:09:39.567Z,1001.88
2023-02-26T09:10:41.064Z,1001.90
2023-02-26T09:11:39.576Z,1001.92
2023-02-26T09:12:39.550Z,1001.88
2023-02-26T09:13:39.479Z,1001.88
2023-02-26T09:14:39.464Z,1001.93
2023-02-26T09:15:39.465Z,1001.90
2023-02-26T09:16:39.486Z,1001.95
2023-02-26T09:17:39.471Z,1001.98
2023-02-26T09:18:39.421Z,1001.92
2023-02-26T09:19:39.426Z,1001.99
2023-02-26T09:20:39.426Z,1001.96
2023-02-26T09:21:39.397Z,1001.95
2023-02-26T09:22:39.453Z,1001.90
2023-02-26T09:23:39.375Z,1002.04
2023-02-26T09:24:39.416Z,1001.95
2023-02-26T09:25:39.426Z,1002.09
2023-02-26T09:26:39.337Z,1002.09
2023-02-26T09:27:39.327Z,1002.10
2023-02-26T09:28:39.379Z,1002.07
2023-02-26T09:29:39.300Z,1002.18
2023-02-26T09:30:39.287Z,1002.19
2023-02-26T09:31:39.425Z,1002.17
2023-02-26T09:32:39.538Z,1002.24
2023-02-26T09:33:39.294Z,1002.21
2023-02-26T09:34:39.239Z,1002.18
2023-02-26T09:35:39.225Z,1002.29
2023-02-26T09:36:39.214Z,1002.28
2023-02-26T09:37:39.195Z,1002.30
2023-02-26T09:38:39.223Z,1002.33
2023-02-26T09:39:39.193Z,1002.38
2023-02-26T09:40:39.202Z,1002.34
2023-02-26T09:41:39.163Z,1002.31
2023-02-26T09:42:39.161Z,1002.40
2023-02-26T09:43:39.163Z,1002.44
2023-02-26T09:44:39.158Z,1002.37
2023-02-26T09:45:39.161Z,1002.40
2023-02-26T09:46:39.119Z,1002.41
2023-02-26T09:47:39.096Z,1002.47
2023-02-26T09:48:39.092Z,1002.45
2023-02-26T09:49:39.204Z,1002.59
2023-02-26T09:50:39.072Z,1002.55
2023-02-26T09:51:39.078Z,1002.60
2023-02-26T09:52:39.037Z,1002.56
2023-02-26T09:53:39.036Z,1002.57
2023-02-26T09:54:39.098Z,1002.67
2023-02-26T09:55:39.136Z,1002.63
2023-02-26T09:56:39.062Z,1002.63
2023-02-26T09:57:38.979Z,1002.65
2023-02-26T09:58:38.977Z,1002.58
2023-02-26T09:59:38.957Z,1002.63
2023-02-26T10:00:38.973Z,1002.61
2023-02-26T10:01:38.971Z,1002.65
2023-02-26T10:02:38.924Z,1002.70
2023-02-26T10:03:39.052Z,1002.63
2023-02-26T10:04:38.916Z,1002.64
2023-02-26T10:05:38.922Z,1002.70
2023-02-26T10:06:38.916Z,1002.67
2023-02-26T10:07:38.889Z,1002.67
2023-02-26T10:08:38.867Z,1002.68
2023-02-26T10:09:38.911Z,1002.65
2023-02-26T10:10:38.871Z,1002.64
2023-02-26T10:11:38.852Z,1002.64
2023-02-26T10:12:38.837Z,1002.58
2023-02-26T10:13:56.144Z,1002.63
2023-02-26T10:14:39.822Z,1002.68
2023-02-26T10:15:38.810Z,1002.70
2023-02-26T10:16:38.804Z,1002.76
2023-02-26T10:17:38.761Z,1002.75
2023-02-26T10:18:38.778Z,1002.73
2023-02-26T10:19:38.740Z,1002.68
2023-02-26T10:20:38.739Z,1002.76
2023-02-26T10:21:38.738Z,1002.76
2023-02-26T10:22:38.786Z,1002.88
2023-02-26T10:23:38.694Z,1002.87
2023-02-26T10:24:38.702Z,1002.88
2023-02-26T10:25:38.673Z,1002.84
2023-02-26T10:26:38.672Z,1002.80
2023-02-26T10:27:38.682Z,1002.87
2023-02-26T10:28:38.668Z,1002.90
2023-02-26T10:29:38.673Z,1002.82
2023-02-26T10:30:38.661Z,1002.88
2023-02-26T10:31:38.649Z,1002.82
2023-02-26T10:32:38.828Z,1002.84
2023-02-26T10:33:38.588Z,1002.88
2023-02-26T10:34:38.614Z,1002.87
2023-02-26T10:35:38.585Z,1002.79
2023-02-26T10:36:38.571Z,1002.85
2023-02-26T10:37:38.543Z,1002.92
2023-02-26T10:38:38.523Z,1002.91
2023-02-26T10:39:38.527Z,1002.87
2023-02-26T10:40:38.531Z,1002.83
2023-02-26T10:41:38.528Z,1002.85
2023-02-26T10:42:38.479Z,1002.80
2023-02-26T10:43:38.468Z,1002.77
2023-02-26T10:44:38.560Z,1002.85
2023-02-26T10:45:38.526Z,1002.87
2023-02-26T10:46:38.430Z,1002.87
2023-02-26T10:47:38.440Z,1002.97
2023-02-26T10:48:38.411Z,1002.93
2023-02-26T10:49:38.416Z,1002.98
2023-02-26T10:50:39.288Z,1002.92
2023-02-26T10:51:38.377Z,1002.93
2023-02-26T10:52:38.388Z,1002.93
2023-02-26T10:53:40.624Z,1002.92
2023-02-26T10:54:38.398Z,1002.97
2023-02-26T10:55:38.328Z,1002.84
2023-02-26T10:56:38.324Z,1002.91
2023-02-26T10:57:38.307Z,1002.93
2023-02-26T10:58:38.312Z,1002.93
2023-02-26T10:59:38.300Z,1002.93
2023-02-26T11:00:38.294Z,1002.94
2023-02-26T11:01:38.276Z,1002.93
2023-02-26T11:02:38.447Z,1002.89
2023-02-26T11:03:38.306Z,1002.91
2023-02-26T11:04:38.246Z,1002.97
2023-02-26T11:05:38.263Z,1002.97
2023-02-26T11:06:38.207Z,1002.95
2023-02-26T11:07:38.198Z,1002.94
2023-02-26T11:08:38.190Z,1002.94
2023-02-26T11:09:38.181Z,1003.00
2023-02-26T11:10:38.206Z,1003.04
2023-02-26T11:11:38.191Z,1002.95
2023-02-26T11:12:38.821Z,1002.96
2023-02-26T11:13:38.158Z,1002.97
2023-02-26T11:14:38.168Z,1003.00
2023-02-26T11:15:38.173Z,1002.97
2023-02-26T11:16:38.119Z,1003.04
2023-02-26T11:17:38.087Z,1003.03
2023-02-26T11:18:38.098Z,1003.00
2023-02-26T11:19:38.064Z,1003.01
2023-02-26T11:20:38.057Z,1003.00
2023-02-26T11:21:38.074Z,1003.02
2023-02-26T11:22:38.028Z,1003.06
2023-02-26T11:23:38.050Z,1003.06
2023-02-26T11:24:38.045Z,1003.03
2023-02-26T11:25:38.004Z,1003.02
2023-02-26T11:26:37.984Z,1003.01
2023-02-26T11:27:38.023Z,1002.97
2023-02-26T11:28:37.961Z,1002.96
2023-02-26T11:29:37.986Z,1003.02
2023-02-26T11:30:37.972Z,1003.02
2023-02-26T11:31:39.095Z,1002.99
2023-02-26T11:32:38.055Z,1003.05
2023-02-26T11:33:37.944Z,1003.07
2023-02-26T11:34:37.904Z,1003.13
2023-02-26T11:35:37.896Z,1003.10
2023-02-26T11:36:37.894Z,1003.16
2023-02-26T11:37:37.866Z,1003.13
2023-02-26T11:38:37.883Z,1003.16
2023-02-26T11:39:37.879Z,1003.14
2023-02-26T11:40:37.824Z,1003.18
2023-02-26T11:41:37.835Z,1003.13
2023-02-26T11:42:37.807Z,1003.16
2023-02-26T11:43:37.804Z,1003.15
2023-02-26T11:44:37.782Z,1003.14
2023-02-26T11:45:37.775Z,1003.11
2023-02-26T11:46:37.854Z,1003.18
2023-02-26T11:47:37.765Z,1003.10
2023-02-26T11:48:37.765Z,1003.10
2023-02-26T11:49:37.750Z,1003.15
2023-02-26T11:50:37.716Z,1003.14
2023-02-26T11:51:37.734Z,1003.18
2023-02-26T11:52:37.694Z,1003.21
2023-02-26T11:53:37.701Z,1003.19
2023-02-26T11:54:37.679Z,1003.30
2023-02-26T11:55:37.676Z,1003.29
2023-02-26T11:56:37.688Z,1003.17
2023-02-26T11:57:37.680Z,1003.21
2023-02-26T11:58:37.648Z,1003.22
2023-02-26T11:59:37.643Z,1003.15
2023-02-26T12:00:37.618Z,1003.13
2023-02-26T12:01:37.588Z,1003.09
2023-02-26T12:02:37.644Z,1003.08
2023-02-26T12:03:37.587Z,1003.12
2023-02-26T12:04:37.577Z,1003.02
2023-02-26T12:05:37.557Z,1003.02
2023-02-26T12:06:37.555Z,1002.94
2023-02-26T12:07:37.525Z,1003.02
2023-02-26T12:08:37.524Z,1003.05
2023-02-26T12:09:37.509Z,1003.01
2023-02-26T12:10:37.495Z,1003.03
2023-02-26T12:11:37.500Z,1003.01
2023-02-26T12:12:37.455Z,1003.04
2023-02-26T12:13:37.447Z,1003.06
2023-02-26T12:14:37.470Z,1003.08
2023-02-26T12:15:37.512Z,1003.08
2023-02-26T12:16:37.421Z,1003.05
2023-02-26T12:17:37.406Z,1003.02
2023-02-26T12:18:37.399Z,1003.02